Time;durP1;ratioP1;P1;durP2;ratioP2;P2;SDS_P1;SDS_P2;PMS_P1;PMS_P2;Temp;Humidity;BMP_temperature;BMP_pressure;BME280_temperature;BME280_humidity;BME280_pressure;Samples;Min_cycle;Max_cycle;Signal;HPM_P1;HPM_P2
2021/06/29 00:01:00;;;;;;;5.83;5.17;;;;;;;17.26;100.00;99183.23;1726987;81;21024;-62
2021/06/29 00:03:26;;;;;;;6.58;5.15;;;;;;;17.19;100.00;99186.92;1728696;81;21126;-61
2021/06/29 00:05:52;;;;;;;8.65;5.45;;;;;;;17.10;100.00;99184.70;1725035;81;20985;-61
2021/06/29 00:08:19;;;;;;;7.42;5.50;;;;;;;17.02;100.00;99182.70;1722205;80;21688;-61
2021/06/29 00:10:46;;;;;;;8.03;6.10;;;;;;;17.00;100.00;99186.27;1695246;82;20938;-60
2021/06/29 00:13:13;;;;;;;5.83;5.33;;;;;;;17.00;100.00;99186.27;1706575;83;21059;-60
2021/06/29 00:15:40;;;;;;;9.83;5.92;;;;;;;17.01;100.00;99188.69;1669006;84;21193;-60
2021/06/29 00:18:07;;;;;;;9.48;5.95;;;;;;;17.05;100.00;99188.33;1734547;81;21524;-61
2021/06/29 00:20:34;;;;;;;8.83;6.60;;;;;;;17.06;100.00;99184.50;1729887;81;21106;-61
2021/06/29 00:23:02;;;;;;;8.55;5.53;;;;;;;17.11;100.00;99187.66;1732647;81;21114;-61
2021/06/29 00:25:28;;;;;;;6.53;5.70;;;;;;;17.14;100.00;99183.77;1728644;81;21551;-62
2021/06/29 00:27:55;;;;;;;7.70;5.45;;;;;;;17.19;100.00;99186.92;1749240;81;21191;-61
2021/06/29 00:30:21;;;;;;;6.45;5.83;;;;;;;17.22;100.00;99190.39;1733438;81;21027;-62
2021/06/29 00:32:48;;;;;;;6.97;5.50;;;;;;;17.23;100.00;99189.27;1738495;81;21097;-66
2021/06/29 00:35:15;;;;;;;8.10;6.00;;;;;;;17.21;100.00;99188.78;1735234;81;21030;-67
2021/06/29 00:37:43;;;;;;;10.60;6.20;;;;;;;17.20;100.00;99187.72;1728648;81;22262;-67
2021/06/29 00:40:11;;;;;;;6.72;5.60;;;;;;;17.18;100.00;99188.59;1730244;81;21391;-67
2021/06/29 00:42:38;;;;;;;;;;;;;;;17.19;100.00;99192.34;1734255;81;21091;-67
2021/06/29 00:45:06;;;;;;;7.80;5.78;;;;;;;17.17;100.00;99186.42;1718374;81;21102;-66
2021/06/29 00:47:32;;;;;;;7.67;5.83;;;;;;;17.12;100.00;99186.00;1723717;81;21145;-67
2021/06/29 00:49:59;;;;;;;6.95;5.97;;;;;;;17.06;100.00;99185.06;1736744;81;21082;-66
2021/06/29 00:52:25;;;;;;;12.05;6.53;;;;;;;17.01;100.00;99178.41;1736775;81;20972;-67
2021/06/29 00:54:52;;;;;;;5.40;4.85;;;;;;;16.97;100.00;99176.04;1720111;81;21487;-67
2021/06/29 00:57:18;;;;;;;6.28;5.60;;;;;;;16.93;100.00;99177.22;1747340;81;21073;-67
2021/06/29 00:59:45;;;;;;;8.35;5.62;;;;;;;16.90;100.00;99169.14;1719576;81;21035;-66
2021/06/29 01:02:11;;;;;;;14.63;5.80;;;;;;;16.88;100.00;99164.58;1735978;81;20895;-66
2021/06/29 01:04:40;;;;;;;6.83;5.90;;;;;;;16.85;100.00;99169.23;1727014;81;21469;-67
2021/06/29 01:07:08;;;;;;;6.62;5.55;;;;;;;16.84;100.00;99169.55;1741879;81;21309;-67
2021/06/29 01:09:34;;;;;;;;;;;;;;;16.80;100.00;99167.98;1730775;81;21706;-66
2021/06/29 01:12:01;;;;;;;6.37;5.78;;;;;;;16.76;100.00;99176.47;1729141;81;20583;-65
2021/06/29 01:14:27;;;;;;;7.12;6.28;;;;;;;16.68;100.00;99180.70;1724391;81;21003;-65
2021/06/29 01:16:54;;;;;;;7.28;5.80;;;;;;;16.66;100.00;99173.98;1726920;81;21188;-65
2021/06/29 01:19:22;;;;;;;9.98;6.67;;;;;;;16.61;100.00;99172.70;1722438;80;21537;-65
2021/06/29 01:21:50;;;;;;;;;;;;;;;16.52;100.00;99169.91;1723584;81;21086;-67
2021/06/29 01:24:24;;;;;;;;;;;;;;;16.47;100.00;99169.46;1734232;81;20123;-67
2021/06/29 01:26:56;;;;;;;9.88;6.55;;;;;;;16.43;100.00;99165.74;1726795;81;20453;-65
2021/06/29 01:29:17;;;;;;;;;;;;;;;16.39;100.00;99159.88;1742289;81;20900;-66
2021/06/29 01:31:43;;;;;;;7.22;5.58;;;;;;;16.38;100.00;99156.92;1722654;81;20148;-66
2021/06/29 01:34:10;;;;;;;7.25;6.00;;;;;;;16.37;100.00;99166.17;1727920;81;21082;-66
2021/06/29 01:36:39;;;;;;;11.00;6.65;;;;;;;16.34;100.00;99164.04;1728530;81;21114;-66
2021/06/29 01:39:08;;;;;;;7.10;6.40;;;;;;;16.31;100.00;99168.16;1724333;81;21449;-66
2021/06/29 01:41:35;;;;;;;9.30;6.53;;;;;;;16.28;100.00;99163.34;1722195;81;21496;-66
2021/06/29 01:44:07;;;;;;;12.43;6.25;;;;;;;16.21;100.00;99170.50;1737142;81;20892;-67
2021/06/29 01:46:33;;;;;;;7.33;6.00;;;;;;;16.16;100.00;99169.81;1717869;81;22005;-65
2021/06/29 01:48:58;;;;;;;;;;;;;;;16.10;100.00;99176.44;1733888;81;21022;-66
2021/06/29 01:51:25;;;;;;;7.65;6.35;;;;;;;16.07;100.00;99171.08;1733803;81;20181;-66
2021/06/29 01:53:52;;;;;;;8.50;6.12;;;;;;;16.07;100.00;99169.72;1726807;81;20971;-66
2021/06/29 01:56:27;;;;;;;10.37;6.37;;;;;;;16.08;100.00;99169.95;1739807;81;21144;-65
2021/06/29 01:58:52;;;;;;;8.98;6.25;;;;;;;16.04;100.00;99172.45;1735535;81;21425;-67
2021/06/29 02:01:16;;;;;;;8.18;6.30;;;;;;;16.02;100.00;99173.32;1725317;81;21095;-65
2021/06/29 02:03:43;;;;;;;15.40;6.97;;;;;;;16.01;100.00;99172.25;1735513;81;21505;-65
2021/06/29 02:06:10;;;;;;;7.95;6.83;;;;;;;16.02;100.00;99174.67;1730055;81;21003;-66
2021/06/29 02:08:37;;;;;;;7.55;6.03;;;;;;;16.01;100.00;99177.11;1736416;81;21714;-64
2021/06/29 02:11:03;;;;;;;7.40;6.33;;;;;;;16.01;100.00;99176.31;1742367;81;21078;-65
2021/06/29 02:13:30;;;;;;;6.95;6.30;;;;;;;15.99;100.00;99173.89;1751330;81;20994;-64
2021/06/29 02:15:57;;;;;;;10.05;5.97;;;;;;;16.01;100.00;99173.05;1736671;81;20932;-65
2021/06/29 02:18:23;;;;;;;6.60;5.90;;;;;;;16.01;100.00;99170.90;1739347;81;21003;-64
2021/06/29 02:20:50;;;;;;;7.05;6.28;;;;;;;15.96;100.00;99173.70;1712440;81;20940;-65
2021/06/29 02:23:17;;;;;;;6.72;5.67;;;;;;;15.96;100.00;99175.85;1726393;81;21127;-65
2021/06/29 02:25:44;;;;;;;6.37;5.78;;;;;;;15.99;100.00;99182.02;1734674;81;21212;-65
2021/06/29 02:28:10;;;;;;;9.30;6.25;;;;;;;16.04;100.00;99184.63;1721726;81;20919;-65
2021/06/29 02:30:37;;;;;;;9.35;5.95;;;;;;;16.08;100.00;99192.41;1733227;81;21075;-65
2021/06/29 02:33:03;;;;;;;8.15;5.95;;;;;;;16.11;100.00;99188.86;1734967;81;21492;-65
2021/06/29 02:35:30;;;;;;;8.15;5.90;;;;;;;16.11;100.00;99184.23;1724314;81;21947;-65
2021/06/29 02:37:57;;;;;;;7.45;5.78;;;;;;;16.12;100.00;99188.57;1718936;81;21111;-65
2021/06/29 02:40:24;;;;;;;8.28;5.45;;;;;;;16.12;100.00;99191.81;1729832;81;21526;-65
2021/06/29 02:42:50;;;;;;;6.28;5.67;;;;;;;16.11;100.00;99196.42;1720954;81;20948;-65
2021/06/29 02:45:19;;;;;;;8.13;5.37;;;;;;;16.08;100.00;99191.06;1729318;81;21110;-65
2021/06/29 02:47:45;;;;;;;11.25;6.05;;;;;;;16.11;100.00;99191.56;1720194;81;21502;-66
2021/06/29 02:50:12;;;;;;;7.33;5.90;;;;;;;16.11;100.00;99184.80;1718959;81;20920;-66
2021/06/29 02:52:39;;;;;;;8.73;5.45;;;;;;;16.07;100.00;99187.31;1716263;81;21382;-66
2021/06/29 02:55:08;;;;;;;6.45;5.85;;;;;;;16.04;100.00;99184.63;1720214;81;20992;-67
2021/06/29 02:57:34;;;;;;;9.15;5.80;;;;;;;16.02;100.00;99183.32;1725165;81;21793;-67
2021/06/29 03:00:01;;;;;;;9.35;5.22;;;;;;;16.04;100.00;99185.98;1731852;81;21103;-67
2021/06/29 03:02:28;;;;;;;7.17;5.83;;;;;;;16.06;100.00;99183.78;1720414;81;21063;-67
2021/06/29 03:04:54;;;;;;;7.30;5.58;;;;;;;16.08;100.00;99176.17;1741935;81;20970;-65
2021/06/29 03:07:22;;;;;;;9.95;6.10;;;;;;;16.11;100.00;99184.80;1733994;81;20979;-65
2021/06/29 03:09:48;;;;;;;8.70;5.33;;;;;;;16.09;100.00;99183.73;1738079;80;21496;-65
2021/06/29 03:12:15;;;;;;;9.38;5.65;;;;;;;16.06;100.00;99181.63;1735035;81;21156;-65
2021/06/29 03:14:41;;;;;;;6.12;5.53;;;;;;;16.07;100.00;99177.84;1722773;81;21010;-65
2021/06/29 03:17:08;;;;;;;10.35;5.37;;;;;;;16.08;100.00;99181.58;1739907;81;20989;-65
2021/06/29 03:19:35;;;;;;;6.28;5.40;;;;;;;16.15;100.00;99182.55;1723690;81;20984;-64
2021/06/29 03:22:02;;;;;;;10.75;6.05;;;;;;;16.28;100.00;99187.16;1720406;81;20965;-65
2021/06/29 03:24:29;;;;;;;7.40;5.80;;;;;;;16.46;100.00;99186.83;1683015;84;21129;-65
2021/06/29 03:26:56;;;;;;;8.35;5.80;;;;;;;16.63;100.00;99188.11;1733071;81;22108;-65
2021/06/29 03:29:22;;;;;;;9.20;5.80;;;;;;;16.81;100.00;99187.78;1735716;80;21054;-66
2021/06/29 03:31:49;;;;;;;6.80;5.70;;;;;;;16.98;100.00;99196.61;1730580;81;21093;-65
2021/06/29 03:34:15;;;;;;;6.75;5.05;;;;;;;17.13;100.00;99187.59;1721163;81;21442;-65
2021/06/29 03:36:42;;;;;;;8.55;5.10;;;;;;;17.29;100.00;99188.59;1719008;80;21842;-64
2021/06/29 03:39:10;;;;;;;6.72;5.45;;;;;;;17.43;100.00;99192.06;1741749;81;20954;-65
2021/06/29 03:41:37;;;;;;;7.72;5.33;;;;;;;17.54;100.00;99189.36;1730243;81;20947;-65
2021/06/29 03:44:05;;;;;;;5.78;5.20;;;;;;;17.69;100.00;99192.25;1731525;81;21096;-66
2021/06/29 03:46:32;;;;;;;8.30;5.40;;;;;;;17.84;100.00;99194.38;1733153;81;21011;-67
2021/06/29 03:48:59;;;;;;;9.33;6.07;;;;;;;17.95;100.00;99192.41;1729672;81;21051;-68
2021/06/29 03:51:25;;;;;;;9.78;5.62;;;;;;;18.05;100.00;99192.70;1723388;81;21356;-67
2021/06/29 03:53:52;;;;;;;7.08;5.20;;;;;;;18.11;100.00;99187.96;1723727;81;20888;-67
2021/06/29 03:56:24;;;;;;;7.42;4.87;;;;;;;18.02;100.00;99186.55;1735224;81;21094;-67
2021/06/29 03:58:52;;;;;;;6.67;5.33;;;;;;;17.95;100.00;99187.55;1722213;81;21457;-65
2021/06/29 04:01:19;;;;;;;9.98;5.50;;;;;;;17.88;100.00;99183.91;1728524;81;21134;-65
2021/06/29 04:03:45;;;;;;;6.25;4.75;;;;;;;17.99;100.00;99187.97;1735167;81;20968;-66
2021/06/29 04:06:12;;;;;;;7.25;5.35;;;;;;;18.14;100.00;99188.13;1722215;81;21036;-65
2021/06/29 04:08:38;;;;;;;6.08;4.95;;;;;;;18.29;100.00;99190.19;1722791;81;20988;-65
2021/06/29 04:11:05;;;;;;;9.20;6.08;;;;;;;18.47;100.00;99190.51;1736105;80;20983;-66
2021/06/29 04:13:31;;;;;;;10.45;5.80;;;;;;;18.65;100.00;99184.55;1727605;81;21165;-66
2021/06/29 04:15:58;;;;;;;10.80;5.55;;;;;;;18.81;100.00;99187.11;1716432;81;20900;-66
2021/06/29 04:18:24;;;;;;;8.38;5.00;;;;;;;18.95;100.00;99184.80;1741153;81;20813;-67
2021/06/29 04:20:51;;;;;;;7.00;4.92;;;;;;;19.12;100.00;99188.09;1708040;81;20968;-66
2021/06/29 04:23:17;;;;;;;8.30;5.53;;;;;;;19.23;100.00;99189.36;1691315;82;21240;-67
2021/06/29 04:25:43;;;;;;;7.08;6.03;;;;;;;19.22;100.00;99202.73;1718270;81;21112;-66
2021/06/29 04:28:10;;;;;;;9.48;5.12;;;;;;;19.25;100.00;99200.16;1728993;81;21013;-66
2021/06/29 04:30:36;;;;;;;6.80;4.97;;;;;;;19.28;100.00;99205.55;1721361;81;21682;-66
2021/06/29 04:33:04;;;;;;;7.83;5.03;;;;;;;19.33;100.00;99204.03;1709424;81;21032;-67
2021/06/29 04:35:31;;;;;;;6.17;5.20;;;;;;;19.47;100.00;99205.20;1735002;81;20939;-67
2021/06/29 04:37:57;;;;;;;6.90;5.37;;;;;;;19.58;100.00;99206.48;1724145;81;21114;-67
2021/06/29 04:40:24;;;;;;;5.97;5.00;;;;;;;19.75;100.00;99202.98;1725288;81;21379;-66
2021/06/29 04:42:51;;;;;;;9.83;5.05;;;;;;;19.96;100.00;99207.16;1725646;81;20908;-66
2021/06/29 04:45:17;;;;;;;7.87;4.90;;;;;;;19.87;100.00;99211.84;1735803;81;21011;-67
2021/06/29 04:47:47;;;;;;;9.10;4.70;;;;;;;19.89;100.00;99214.48;1727966;81;21553;-66
2021/06/29 04:50:17;;;;;;;8.98;5.47;;;;;;;20.05;100.00;99216.69;1723516;81;21480;-67
2021/06/29 04:52:44;;;;;;;6.70;5.08;;;;;;;20.21;100.00;99212.85;1732339;81;21540;-66
2021/06/29 04:55:11;;;;;;;6.10;4.58;;;;;;;20.27;100.00;99216.45;1745354;81;20999;-66
2021/06/29 04:57:38;;;;;;;7.87;5.28;;;;;;;20.38;100.00;99220.96;1721420;81;21052;-65
2021/06/29 05:00:09;;;;;;;6.42;4.92;;;;;;;20.47;100.00;99220.94;1725580;81;21034;-68
2021/06/29 05:02:36;;;;;;;7.85;5.15;;;;;;;20.63;100.00;99213.84;1732808;80;21163;-67
2021/06/29 05:05:06;;;;;;;6.65;4.80;;;;;;;20.65;100.00;99212.12;1722826;81;21067;-67
2021/06/29 05:07:32;;;;;;;7.17;4.87;;;;;;;20.79;100.00;99210.55;1724497;81;21008;-68
2021/06/29 05:09:59;;;;;;;6.50;4.92;;;;;;;20.98;100.00;99213.06;1736517;81;20925;-66
2021/06/29 05:12:25;;;;;;;7.08;4.80;;;;;;;21.22;100.00;99208.89;1732036;81;21133;-63
2021/06/29 05:14:52;;;;;;;6.00;4.45;;;;;;;21.39;100.00;99220.27;1737673;80;21109;-63
2021/06/29 05:17:18;;;;;;;7.00;4.65;;;;;;;21.55;100.00;99212.25;1727634;81;21146;-64
2021/06/29 05:19:46;;;;;;;5.92;4.47;;;;;;;21.67;100.00;99215.03;1727308;81;21501;-65
2021/06/29 05:22:12;;;;;;;5.17;4.40;;;;;;;21.62;100.00;99214.67;1724978;81;21135;-65
2021/06/29 05:24:39;;;;;;;10.82;5.42;;;;;;;21.53;100.00;99209.84;1736632;81;20938;-66
2021/06/29 05:27:07;;;;;;;5.87;5.05;;;;;;;21.52;100.00;99206.09;1734681;81;21092;-65
2021/06/29 05:29:33;;;;;;;8.98;4.87;;;;;;;21.74;100.00;99213.12;1738927;81;20875;-66
2021/06/29 05:31:59;;;;;;;4.75;4.33;;;;;;;22.05;100.00;99213.44;1731215;81;21477;-66
2021/06/29 05:34:26;;;;;;;5.50;4.87;;;;;;;21.98;100.00;99205.57;1739754;81;20939;-66
2021/06/29 05:36:52;;;;;;;5.30;4.37;;;;;;;22.01;100.00;99211.72;1747693;80;21119;-65
2021/06/29 05:39:19;;;;;;;11.12;4.45;;;;;;;22.24;100.00;99213.48;1691765;81;21359;-66
2021/06/29 05:41:45;;;;;;;6.67;4.53;;;;;;;22.47;100.00;99205.09;1723145;81;21347;-66
2021/06/29 05:44:12;;;;;;;7.40;5.08;;;;;;;22.77;100.00;99214.42;1729071;81;20883;-65
2021/06/29 05:46:40;;;;;;;12.78;5.45;;;;;;;22.75;100.00;99209.86;1731030;80;21197;-67
2021/06/29 05:49:12;;;;;;;9.00;4.78;;;;;;;22.86;100.00;99213.73;1689040;82;21757;-65
2021/06/29 05:51:39;;;;;;;8.00;4.75;;;;;;;23.13;100.00;99211.44;1693080;83;21772;-66
2021/06/29 05:54:06;;;;;;;7.40;4.87;;;;;;;22.96;100.00;99205.63;1687033;83;20866;-65
2021/06/29 05:56:33;;;;;;;6.42;4.53;;;;;;;23.16;100.00;99214.84;1683064;83;21155;-66
2021/06/29 05:58:59;;;;;;;6.80;4.53;;;;;;;23.41;100.00;99210.66;1676658;83;21062;-66
2021/06/29 06:01:26;;;;;;;10.32;4.37;;;;;;;23.38;100.00;99205.89;1680932;83;21470;-65
2021/06/29 06:03:52;;;;;;;5.83;5.22;;;;;;;23.60;100.00;99205.92;1662061;84;21193;-65
2021/06/29 06:06:19;;;;;;;6.28;5.00;;;;;;;23.66;100.00;99209.41;1690451;83;20923;-65
2021/06/29 06:08:45;;;;;;;6.40;5.22;;;;;;;23.80;100.00;99204.14;1697012;83;20970;-67
2021/06/29 06:11:12;;;;;;;6.67;5.47;;;;;;;23.85;100.00;99210.16;1687615;83;21340;-66
2021/06/29 06:13:38;;;;;;;10.08;6.10;;;;;;;24.14;100.00;99214.44;1684157;83;21015;-65
2021/06/29 06:16:05;;;;;;;10.03;5.67;;;;;;;24.53;99.17;99219.34;1687143;83;21189;-66
2021/06/29 06:18:32;;;;;;;10.25;5.00;;;;;;;24.68;94.70;99225.38;1695711;82;21089;-67
2021/06/29 06:20:58;;;;;;;4.83;4.40;;;;;;;24.77;92.77;99226.00;1698830;83;21511;-66
2021/06/29 06:23:24;;;;;;;6.90;4.03;;;;;;;24.85;89.82;99224.20;1695304;83;21147;-65
2021/06/29 06:25:51;;;;;;;6.60;4.80;;;;;;;24.54;89.73;99223.66;1659484;84;21040;-67
2021/06/29 06:28:17;;;;;;;5.15;4.10;;;;;;;24.67;91.93;99220.23;1687485;83;21116;-67
2021/06/29 06:30:44;;;;;;;6.37;4.42;;;;;;;24.81;90.91;99220.58;1691367;83;20913;-66
2021/06/29 06:33:11;;;;;;;6.35;4.55;;;;;;;24.65;93.76;99217.08;1702672;83;21032;-66
2021/06/29 06:35:38;;;;;;;4.80;4.15;;;;;;;25.11;90.43;99225.55;1685010;83;20979;-66
2021/06/29 06:38:04;;;;;;;7.12;3.52;;;;;;;25.40;79.89;99222.86;1692780;83;21043;-66
2021/06/29 06:40:30;;;;;;;5.78;4.85;;;;;;;25.63;79.66;99227.06;1690326;83;21112;-67
2021/06/29 06:42:57;;;;;;;10.03;4.40;;;;;;;25.91;81.04;99228.79;1691536;83;21336;-67
2021/06/29 06:45:24;;;;;;;6.15;3.85;;;;;;;25.84;74.06;99228.83;1683066;83;21048;-67
2021/06/29 06:47:52;;;;;;;7.05;4.53;;;;;;;25.76;79.81;99229.86;1702731;82;20997;-66
2021/06/29 06:50:18;;;;;;;5.83;3.95;;;;;;;26.09;78.24;99237.59;1687609;83;21043;-65
2021/06/29 06:52:45;;;;;;;7.33;5.10;;;;;;;26.19;78.05;99227.94;1696667;82;21597;-66
2021/06/29 06:55:12;;;;;;;4.87;3.75;;;;;;;26.27;80.73;99234.35;1691368;83;21034;-67
2021/06/29 06:57:40;;;;;;;5.10;4.05;;;;;;;26.42;74.12;99237.55;1689109;83;21016;-66
2021/06/29 07:00:08;;;;;;;4.97;4.22;;;;;;;26.65;73.28;99242.27;1726729;80;21160;-67
2021/06/29 07:02:34;;;;;;;13.15;5.00;;;;;;;26.54;72.00;99240.73;1738691;81;20924;-67
2021/06/29 07:05:01;;;;;;;9.15;3.77;;;;;;;26.48;70.94;99231.15;1741668;80;21173;-66
2021/06/29 07:07:27;;;;;;;10.90;3.73;;;;;;;26.69;71.51;99237.62;1744097;81;21082;-67
2021/06/29 07:09:54;;;;;;;9.48;3.70;;;;;;;26.85;71.07;99241.58;1734781;80;21539;-66
2021/06/29 07:12:20;;;;;;;18.15;4.67;;;;;;;26.56;70.79;99248.04;1744237;81;20928;-67
2021/06/29 07:14:47;;;;;;;6.15;4.42;;;;;;;26.40;71.18;99236.33;1745771;81;20956;-66
2021/06/29 07:17:29;;;;;;;7.05;3.80;;;;;;;26.19;73.67;99244.44;1742165;81;21075;-66
2021/06/29 07:19:55;;;;;;;4.58;3.65;;;;;;;26.33;71.99;99238.37;1738701;81;21093;-66
2021/06/29 07:22:24;;;;;;;8.18;3.90;;;;;;;26.39;70.93;99246.55;1741434;80;21030;-66
2021/06/29 07:24:53;;;;;;;8.55;4.05;;;;;;;26.53;68.69;99246.00;1745227;81;20982;-66
2021/06/29 07:27:19;;;;;;;3.33;3.02;;;;;;;26.53;69.36;99240.50;1743886;81;21269;-67
2021/06/29 07:29:46;;;;;;;3.20;2.90;;;;;;;26.26;69.14;99247.31;1741639;81;21203;-65
2021/06/29 07:32:12;;;;;;;4.73;3.60;;;;;;;26.17;71.31;99252.26;1737155;81;21042;-66
2021/06/29 07:34:39;;;;;;;4.15;3.15;;;;;;;26.32;71.55;99249.17;1715861;81;21643;-66
2021/06/29 07:37:06;;;;;;;4.22;3.50;;;;;;;26.44;66.97;99253.12;1734908;81;21053;-66
2021/06/29 07:39:33;;;;;;;4.87;3.60;;;;;;;26.60;67.90;99253.59;1727339;81;20973;-66
2021/06/29 07:42:00;;;;;;;9.08;3.70;;;;;;;26.70;68.66;99262.03;1721402;81;21772;-67
2021/06/29 07:44:26;;;;;;;6.80;4.80;;;;;;;26.29;65.76;99256.80;1715529;81;21358;-64
2021/06/29 07:46:57;;;;;;;8.13;4.78;;;;;;;26.41;66.76;99257.17;1728101;81;21145;-66
2021/06/29 07:49:22;;;;;;;6.97;4.00;;;;;;;26.45;65.76;99248.41;1730012;81;21008;-65
2021/06/29 07:51:48;;;;;;;4.40;3.10;;;;;;;26.64;65.77;99257.20;1724924;81;21001;-64
2021/06/29 07:54:15;;;;;;;5.67;3.70;;;;;;;26.37;62.13;99245.33;1731918;81;21417;-63
2021/06/29 07:56:42;;;;;;;7.83;4.42;;;;;;;26.75;63.56;99254.61;1723991;82;21382;-64
2021/06/29 07:59:09;;;;;;;4.93;3.10;;;;;;;27.08;64.70;99256.09;1718973;81;21303;-64
2021/06/29 08:01:36;;;;;;;6.40;3.27;;;;;;;27.19;58.87;99249.97;1738543;81;21137;-63
2021/06/29 08:04:04;;;;;;;10.60;4.33;;;;;;;27.07;59.55;99242.69;1733751;79;21055;-65
2021/06/29 08:06:30;;;;;;;55.67;8.25;;;;;;;26.73;63.14;99248.11;1723687;81;21143;-64
2021/06/29 08:09:03;;;;;;;5.23;3.40;;;;;;;26.61;66.49;99250.48;1732466;81;21548;-64
2021/06/29 08:11:30;;;;;;;9.45;3.98;;;;;;;26.17;67.31;99248.13;1704569;83;21534;-64
2021/06/29 08:13:56;;;;;;;13.40;5.33;;;;;;;26.06;68.11;99242.42;1703832;82;21046;-63
2021/06/29 08:16:24;;;;;;;8.58;4.60;;;;;;;25.90;67.21;99246.46;1696384;81;21072;-65
2021/06/29 08:18:50;;;;;;;12.55;5.12;;;;;;;25.42;68.09;99237.03;1716354;82;21097;-64
2021/06/29 08:21:17;;;;;;;9.55;4.15;;;;;;;25.57;67.79;99243.03;1708169;82;21026;-63
2021/06/29 08:23:47;;;;;;;9.43;4.25;;;;;;;26.01;65.28;99242.73;1712666;82;21509;-65
2021/06/29 08:26:14;;;;;;;5.75;4.15;;;;;;;26.34;64.35;99238.60;1726342;81;21142;-66
2021/06/29 08:28:42;;;;;;;4.62;3.90;;;;;;;26.78;63.48;99245.60;1724251;81;21087;-67
2021/06/29 08:31:08;;;;;;;8.28;3.65;;;;;;;26.90;58.65;99250.34;1666715;84;21132;-67
2021/06/29 08:33:35;;;;;;;6.03;3.95;;;;;;;26.89;61.29;99243.22;1678505;84;20904;-67
2021/06/29 08:36:04;;;;;;;7.42;3.95;;;;;;;27.09;57.55;99247.24;1660842;84;21174;-66
2021/06/29 08:38:31;;;;;;;5.15;3.60;;;;;;;27.26;57.68;99241.80;1669364;84;21121;-67
2021/06/29 08:40:58;;;;;;;7.17;4.00;;;;;;;27.10;56.09;99243.34;1721705;81;21114;-67
2021/06/29 08:43:25;;;;;;;8.18;3.90;;;;;;;26.65;58.18;99243.64;1732551;81;21665;-66
2021/06/29 08:45:53;;;;;;;6.42;3.92;;;;;;;26.24;60.42;99244.13;1717123;81;20919;-68
2021/06/29 08:48:22;;;;;;;5.08;3.70;;;;;;;26.48;59.70;99239.41;1692211;82;21036;-68
2021/06/29 08:50:51;;;;;;;4.28;3.87;;;;;;;26.59;58.00;99234.91;1733701;81;21058;-66
2021/06/29 08:53:21;;;;;;;4.20;3.40;;;;;;;26.91;56.94;99234.60;1745751;81;21017;-67
2021/06/29 08:55:52;;;;;;;6.08;2.85;;;;;;;27.04;56.73;99235.96;1714883;81;21113;-66
2021/06/29 08:58:23;;;;;;;4.00;3.17;;;;;;;27.09;55.65;99230.72;1710883;81;20978;-65
2021/06/29 09:00:58;;;;;;;6.95;3.45;;;;;;;27.18;53.79;99231.83;1662643;84;21126;-65
2021/06/29 09:03:32;;;;;;;5.12;3.00;;;;;;;27.05;55.50;99223.01;1692690;83;21087;-67
2021/06/29 09:06:05;;;;;;;3.25;2.55;;;;;;;27.04;55.02;99212.55;1717077;81;21413;-65
2021/06/29 09:08:40;;;;;;;3.50;2.98;;;;;;;27.20;51.65;99218.52;1712553;81;20973;-66
2021/06/29 09:11:17;;;;;;;8.68;3.33;;;;;;;27.36;54.70;99209.45;1727511;81;21008;-66
2021/06/29 09:14:09;;;;;;;5.95;2.95;;;;;;;27.68;53.80;99213.95;1701143;83;20993;-67
2021/06/29 09:16:40;;;;;;;5.97;3.37;;;;;;;27.62;55.66;99212.72;1703060;81;21473;-67
2021/06/29 09:19:07;;;;;;;3.12;2.87;;;;;;;27.38;55.25;99209.09;1728094;81;22104;-67
2021/06/29 09:21:37;;;;;;;6.63;3.10;;;;;;;27.58;53.16;99218.77;1731459;81;21166;-67
2021/06/29 09:24:06;;;;;;;4.42;3.33;;;;;;;27.65;52.92;99210.58;1717421;81;21010;-68
2021/06/29 09:26:40;;;;;;;5.60;2.95;;;;;;;27.96;50.96;99212.12;1701101;82;21152;-67
2021/06/29 09:29:07;;;;;;;5.37;2.75;;;;;;;28.24;51.37;99206.66;1728805;81;21434;-68
2021/06/29 09:31:36;;;;;;;2.83;2.62;;;;;;;28.26;50.89;99199.39;1724014;81;21031;-67
2021/06/29 09:34:05;;;;;;;7.87;3.60;;;;;;;28.00;50.00;99197.80;1726582;81;22254;-67
2021/06/29 09:36:35;;;;;;;8.13;3.35;;;;;;;27.77;50.09;99196.53;1734286;80;21396;-67
2021/06/29 09:39:08;;;;;;;8.70;2.87;;;;;;;27.63;50.27;99190.08;1725891;81;21450;-67
2021/06/29 09:42:01;;;;;;;3.17;2.80;;;;;;;27.68;49.47;99181.46;1728821;80;20919;-67
2021/06/29 09:44:35;;;;;;;4.85;2.92;;;;;;;27.96;49.41;99179.03;1723516;82;21011;-67
2021/06/29 09:47:02;;;;;;;3.42;2.90;;;;;;;27.91;49.48;99180.76;1737396;81;21834;-66
2021/06/29 09:49:29;;;;;;;4.35;2.70;;;;;;;27.74;49.26;99175.83;1695851;83;21048;-66
2021/06/29 09:51:55;;;;;;;2.93;2.63;;;;;;;27.87;49.26;99174.41;1699195;83;21055;-66
2021/06/29 09:54:23;;;;;;;5.17;2.90;;;;;;;27.78;49.47;99169.19;1683422;83;21415;-66
2021/06/29 09:56:51;;;;;;;3.27;2.67;;;;;;;27.82;48.64;99156.83;1709645;83;21085;-65
2021/06/29 09:59:24;;;;;;;5.90;2.40;;;;;;;28.11;52.50;99166.75;1696655;83;21138;-64
2021/06/29 10:02:07;;;;;;;4.70;2.90;;;;;;;28.13;51.74;99166.57;1711127;81;21077;-65
2021/06/29 10:04:34;;;;;;;15.15;3.40;;;;;;;27.42;53.27;99167.22;1715226;81;22140;-65
2021/06/29 10:07:17;;;;;;;;;;;;;;;27.24;54.34;99163.67;1700010;82;21030;-65
2021/06/29 10:09:44;;;;;;;4.47;2.98;;;;;;;27.55;55.52;99159.67;1707671;81;20414;-65
2021/06/29 10:12:11;;;;;;;3.67;3.00;;;;;;;27.99;51.36;99156.79;1724657;81;21146;-67
2021/06/29 10:14:43;;;;;;;3.35;2.98;;;;;;;28.40;49.34;99158.11;1719690;81;20981;-68
2021/06/29 10:17:20;;;;;;;4.87;2.92;;;;;;;28.32;47.53;99151.75;1706366;81;21293;-68
2021/06/29 10:20:10;;;;;;;3.20;2.70;;;;;;;28.11;49.99;99152.95;1703686;82;20980;-68
2021/06/29 10:22:18;;;;;;;3.70;2.77;;;;;;;27.79;50.33;99148.70;1730985;82;21047;-66
2021/06/29 10:24:45;;;;;;;4.67;3.08;;;;;;;27.91;50.67;99156.53;1716345;82;21383;-64
2021/06/29 10:27:12;;;;;;;5.12;2.62;;;;;;;28.08;48.12;99153.13;1729731;82;20969;-66
2021/06/29 10:29:39;;;;;;;10.80;3.58;;;;;;;28.30;48.09;99149.17;1683424;84;21047;-65
2021/06/29 10:32:09;;;;;;;6.40;2.80;;;;;;;28.60;48.01;99142.88;1658608;82;21026;-65
2021/06/29 10:34:37;;;;;;;6.50;2.92;;;;;;;27.85;49.26;99139.52;1701576;82;21433;-66
2021/06/29 10:37:05;;;;;;;6.83;2.98;;;;;;;27.87;49.55;99137.17;1728581;81;21122;-65
2021/06/29 10:39:33;;;;;;;3.67;2.40;;;;;;;27.60;53.57;99142.59;1742718;81;21039;-65
2021/06/29 10:42:04;;;;;;;5.20;2.90;;;;;;;27.63;53.70;99139.08;1751067;81;21515;-65
2021/06/29 10:44:46;;;;;;;5.20;2.87;;;;;;;27.99;51.56;99144.38;1708651;83;21108;-64
2021/06/29 10:47:29;;;;;;;5.35;2.62;;;;;;;28.15;52.80;99147.67;1713728;83;21066;-65
2021/06/29 10:49:59;;;;;;;3.42;2.87;;;;;;;27.95;49.62;99144.92;1714523;83;21758;-63
2021/06/29 10:52:32;;;;;;;3.33;2.72;;;;;;;27.73;51.13;99146.66;1701717;82;21015;-67
2021/06/29 10:55:26;;;;;;;7.80;3.00;;;;;;;27.20;52.88;99141.38;1739639;81;21054;-66
2021/06/29 10:57:57;;;;;;;5.30;3.15;;;;;;;26.95;55.68;99145.97;1730993;80;20994;-67
2021/06/29 11:00:33;;;;;;;6.35;3.08;;;;;;;26.64;57.63;99147.89;1736597;81;21035;-64
2021/06/29 11:03:10;;;;;;;6.87;3.45;;;;;;;26.44;59.13;99140.89;1737413;81;21111;-65
2021/06/29 11:05:40;;;;;;;;;;;;;;;26.23;61.38;99140.75;1741472;81;21495;-65
2021/06/29 11:08:19;;;;;;;6.40;3.37;;;;;;;26.21;63.66;99133.48;1738223;81;20409;-66
2021/06/29 11:10:49;;;;;;;5.58;3.17;;;;;;;26.47;61.74;99133.27;1737177;81;20972;-63
2021/06/29 11:13:42;;;;;;;11.30;3.33;;;;;;;27.13;60.52;99135.16;1741506;82;21463;-61
2021/06/29 11:16:09;;;;;;;3.67;3.27;;;;;;;27.47;56.73;99131.84;1734119;81;21891;-61
2021/06/29 11:18:45;;;;;;;3.45;3.00;;;;;;;27.48;51.64;99120.22;1736827;80;20919;-61
2021/06/29 11:21:27;;;;;;;5.37;3.22;;;;;;;27.73;57.09;99120.47;1739796;82;20982;-60
2021/06/29 11:23:53;;;;;;;4.72;3.20;;;;;;;28.12;55.39;99113.93;1731297;81;21086;-61
2021/06/29 11:26:20;;;;;;;4.95;2.90;;;;;;;27.73;54.11;99110.25;1740888;81;21073;-61
2021/06/29 11:28:50;;;;;;;5.03;3.30;;;;;;;27.50;55.80;99111.78;1734088;81;21113;-62
2021/06/29 11:31:34;;;;;;;7.97;3.00;;;;;;;27.26;55.11;99106.20;1745339;80;20899;-61
2021/06/29 11:34:05;;;;;;;3.25;2.90;;;;;;;27.21;55.23;99103.80;1736534;82;21067;-59